Flight Track Log - Related Links

Times and Time Zones

All times are in EDT time to prevent confusion due to time zone crossing. See the RPA3159 flight status page for this flight to view local times or setup timezone preferences in your user account.

Time Position Orientation Groundspeed Altitude Reporting Facility
EDT Latitude Longitude Course Direction KTS MPH feet Rate Location/Type
Tue 11:56:54 AM 44.2839 -73.1942 197° South 332 382 8,000  Level Boston Center
Tue 11:57:54 AM 44.2044 -73.2278 197° South 313 360 10,400 2,400 Climbing Boston Center
Tue 11:58:00 AM 43.8004 -73.3937 195° South  Level FlightAware Approximate
Tue 11:58:54 AM 44.1333 -73.2847 210° Southwest 300 345 12,800  Level Boston Center
Tue 11:59:00 AM 43.6893 -73.4353 195° South  Level FlightAware Approximate
Tue 11:59:54 AM 44.0597 -73.3500 213° Southwest 316 364 15,400  Level Boston Center
Tue 12:00:00 PM 43.5794 -73.4822 198° South  Level FlightAware Approximate
Tue 12:00:54 PM 43.9842 -73.4183 213° Southwest 324 373 17,800  Level Boston Center
Tue 12:01:00 PM 43.4779 -73.5283 198° South  Level FlightAware Approximate
Tue 12:01:54 PM 43.9022 -73.4889 212° Southwest 335 386 19,500  Level Boston Center
Tue 12:02:00 PM 43.3729 -73.5545 197° South  Level FlightAware Approximate
Tue 12:02:54 PM 43.8203 -73.5622 213° Southwest 353 406 26,000  Level Boston Center
Tue 12:03:54 PM 43.7217 -73.6467 212° Southwest 374 430 23,700 -400 Descending Boston Center
Tue 12:04:54 PM 43.6394 -73.7167 212° Southwest 385 443 25,200 1,150 Climbing Boston Center
Tue 12:05:54 PM 43.5489 -73.7950 212° Southwest 390 449 26,000 400 Climbing Boston Center
Tue 12:06:54 PM 43.4583 -73.8758 213° Southwest 390 449 26,000  Level Boston Center
Tue 12:07:54 PM 43.3572 -73.9622 212° Southwest 397 457 26,000  Level Boston Center
Tue 12:08:54 PM 43.2667 -74.0397 212° Southwest 397 457 26,000  Level Boston Center
Tue 12:09:54 PM 43.1758 -74.1197 213° Southwest 397 457 26,000  Level Boston Center
Tue 12:10:54 PM 43.0828 -74.1997 212° Southwest 397 457 26,000  Level Boston Center
Tue 12:11:54 PM 42.9878 -74.2822 212° Southwest 397 457 26,000  Level Boston Center
Tue 12:12:54 PM 42.9075 -74.3478 211° Southwest 397 457 26,000  Level Boston Center
Tue 12:14:06 PM 42.7911 -74.4489 213° Southwest 397 457 26,000  Level Boston Center
Tue 12:15:06 PM 42.6958 -74.5278 211° Southwest 397 457 26,000  Level Boston Center
Tue 12:16:06 PM 42.6006 -74.6092 212° Southwest 402 463 26,000  Level Boston Center
Tue 12:17:06 PM 42.5053 -74.6903 212° Southwest 402 463 26,000 -200 Level Boston Center
Tue 12:18:06 PM 42.4097 -74.7714 212° Southwest 407 468 25,600 -908 Descending Boston Center
Tue 12:19:05 PM 42.3122 -74.8519 211° Southwest 413 475 24,200 -1,462 Descending Boston Center
Tue 12:20:05 PM 42.2189 -74.9267 211° Southwest 413 475 22,700 -1,433 Descending Boston Center
Tue 12:22:05 PM 42.0411 -75.0742 212° Southwest 388 447 19,900 -1,233 Descending New York Center
Tue 12:23:05 PM 41.9658 -75.1361 211° Southwest 372 428 19,000 -458 Descending New York Center
Tue 12:24:03 PM 41.8800 -75.2058 211° Southwest 367 422 19,000 -353 Level New York Center
Tue 12:25:04 PM 41.7878 -75.2775 210° Southwest 367 422 18,300 -992 Descending New York Center
Tue 12:26:04 PM 41.7106 -75.3417 212° Southwest 349 402 17,000 -1,339 Descending New York Center
Tue 12:27:05 PM 41.6308 -75.4056 211° Southwest 344 396 15,600 -1,438 Descending New York Center
Tue 12:28:05 PM 41.5642 -75.4592 211° Southwest 328 377 14,100 -1,525 Descending New York Center
Tue 12:29:03 PM 41.4847 -75.5231 211° Southwest 316 364 12,600 -1,008 Descending New York Center
Tue 12:30:04 PM 41.4136 -75.5814 212° Southwest 306 352 12,100 -250 Descending New York Center
Tue 12:31:03 PM 41.3406 -75.6369 210° Southwest 311 358 12,100 -150 Level New York Center
Tue 12:32:04 PM 41.2844 -75.6800 210° Southwest 311 358 11,800 -942 Descending New York Center
Tue 12:33:04 PM 41.1967 -75.6900 185° South 288 331 10,200 -843 Descending New York Center
Tue 12:34:05 PM 41.1156 -75.6897 180° South 288 331 10,100 -50 Descending New York Center
Tue 12:35:05 PM 41.0261 -75.6861 178° South 299 344 10,100 -50 Level New York Center
Tue 12:36:06 PM 40.9533 -75.6808 177° South 293 337 10,000  Descending New York Center
Tue 12:37:04 PM 40.8694 -75.6417 161° South 293 337 10,100 51 Climbing New York Center
Tue 12:38:04 PM 40.7919 -75.6033 159° South 299 344 10,100  Level New York Center
Tue 12:39:04 PM 40.7164 -75.5625 158° South 299 344 10,100  Level New York Center
Tue 12:40:05 PM 40.6367 -75.5239 160° South 300 345 10,100  Level New York Center
Tue 12:41:05 PM 40.5653 -75.4889 160° South 300 345 10,100  Level New York Center
Tue 12:42:06 PM 40.4875 -75.4508 160° South 305 351 10,100 -350 Level New York Center
Tue 12:43:05 PM 40.4011 -75.4233 166° South 299 344 9,400 -1,109 Descending New York Center
Tue 12:44:05 PM 40.3283 -75.4211 179° South 288 331 7,900 -1,678 Descending New York Center
Tue 12:45:03 PM 40.2431 -75.4153 177° South 288 331 6,100 -966 Descending New York Center
Tue 12:46:03 PM 40.1722 -75.4106 177° South 299 344 6,000 -50 Descending New York Center
Tue 12:47:04 PM 40.0997 -75.4003 174° South 257 296 6,000 49 Level New York Center
Tue 12:48:06 PM 40.1000 -75.3167 90° East 249 287 6,100 49 Climbing Philadelphia TRACON
Tue 12:49:06 PM 40.1167 -75.2333 75° East 219 252 6,100 -53 Level Philadelphia TRACON
Tue 12:50:00 PM 40.0667 -75.2000 153° Southeast 212 244 6,000 -53 Descending Philadelphia TRACON
Tue 12:51:00 PM 40.0167 -75.1833 166° South 216 249 6,000 50 Level Philadelphia TRACON
Tue 12:52:00 PM 39.9833 -75.1333 131° Southeast 222 255 6,100 50 Climbing Philadelphia TRACON
Tue 12:53:00 PM 40.0000 -75.0500 75° East 222 255 6,100  Level Philadelphia TRACON
Tue 12:54:00 PM 40.0167 -74.9833 72° East 222 255 6,100  Level Philadelphia TRACON
Tue 12:55:00 PM 40.0333 -74.9000 75° East 211 243 6,100 -524 Level Philadelphia TRACON
Tue 12:56:06 PM 40.0167 -74.8500 114° Southeast 198 228 5,000 -1,050 Descending Philadelphia TRACON
Tue 12:57:00 PM 39.9667 -74.8667 194° South 178 205 4,000 -895 Descending Philadelphia TRACON
Tue 12:58:00 PM 39.9333 -74.9167 229° Southwest 165 190 3,300 -450 Descending Philadelphia TRACON
Tue 12:59:00 PM 39.9333 -74.9667 270° West 163 188 3,100 -100 Descending Philadelphia TRACON
Tue 01:00:00 PM 39.9167 -75.0167 247° West 157 181 3,100 -400 Level Philadelphia TRACON
Tue 01:01:00 PM 39.9000 -75.0667 247° West 157 181 2,300 -800 Descending Philadelphia TRACON

Login

Don't have an account? Register now (free) for customized features, flight alerts, and more!